Terminal Aerodrome Forecast
Issued by NWS

Home | Current Version | Previous Version | Text Only | Print | Product List | Glossary On
Versions: 1 2 3 4 5 6 7 8 9 10 11 12 13 14 15 16 17 18 19 20 21 22 23 24 25 26 27 28 29 30 31 32 33 34 35 36 37 38 39 40 41 42
000
FTUS41 KBOX 221729
TAFBED
TAF
KBED 221729Z 2218/2318 08006KT P6SM BKN015
     FM221900 08007KT P6SM SCT015 OVC080
     FM230200 07004KT P6SM OVC015
     FM231000 VRB03KT 3SM BR BKN015
     FM231300 05006KT P6SM BKN025
     FM231600 05006KT P6SM BKN040=

USA.gov is the U.S. government's official web portal to all federal, state and local government web resources and services.